Time;durP1;ratioP1;P1;durP2;ratioP2;P2;SDS_P1;SDS_P2;PMS_P1;PMS_P2;Temp;Humidity;BMP_temperature;BMP_pressure;BME280_temperature;BME280_humidity;BME280_pressure;Samples;Min_cycle;Max_cycle;Signal;HPM_P1;HPM_P2
2022/04/17 00:00:21;;;;;;;6.05;1.27;;;;;;;8.79;70.25;100734.66;5018563;28;20409;-80
2022/04/17 00:02:47;;;;;;;2.08;0.98;;;;;;;8.85;70.16;100751.31;5020374;28;20059;-79
2022/04/17 00:05:12;;;;;;;5.70;0.90;;;;;;;8.73;69.87;100724.13;5019207;28;20045;-80
2022/04/17 00:07:38;;;;;;;7.97;0.70;;;;;;;8.67;69.95;100738.00;5019135;28;20500;-79
2022/04/17 00:10:05;;;;;;;4.32;0.82;;;;;;;8.66;69.63;100723.16;5020368;28;20060;-79
2022/04/17 00:12:31;;;;;;;1.95;0.77;;;;;;;8.85;69.22;100734.75;5020275;28;20172;-80
2022/04/17 00:14:57;;;;;;;4.35;0.77;;;;;;;8.88;69.06;100751.34;5020198;28;20480;-81
2022/04/17 00:18:49;;;;;;;6.57;1.25;;;;;;;8.69;69.68;100754.59;4770493;27;8581112;-80
2022/04/17 00:21:15;;;;;;;3.50;0.85;;;;;;;8.44;70.42;100741.19;5035060;28;20040;-80
2022/04/17 00:23:44;;;;;;;1.35;0.88;;;;;;;8.62;70.42;100743.19;5034529;28;20548;-80
2022/04/17 00:26:10;;;;;;;1.83;0.80;;;;;;;8.36;71.52;100736.69;5034771;28;20052;-79
2022/04/17 00:28:36;;;;;;;3.05;1.02;;;;;;;8.43;70.75;100743.78;5034317;28;20049;-80
2022/04/17 00:31:08;;;;;;;2.08;0.80;;;;;;;8.23;71.44;100727.78;5034415;28;20037;-79
2022/04/17 00:33:34;;;;;;;1.67;0.90;;;;;;;8.40;70.27;100730.66;5032175;28;21353;-79
2022/04/17 00:36:00;;;;;;;2.25;1.00;;;;;;;8.25;70.45;100734.78;5033702;28;20040;-80
2022/04/17 00:38:26;;;;;;;4.05;0.80;;;;;;;8.25;69.90;100755.69;5033809;28;20029;-78
2022/04/17 00:40:54;;;;;;;4.90;1.10;;;;;;;8.03;68.82;100758.84;5032818;28;20706;-80
2022/04/17 00:43:30;;;;;;;4.55;0.60;;;;;;;8.09;68.38;100758.06;5033899;28;20052;-80
2022/04/17 00:46:00;;;;;;;3.53;1.27;;;;;;;7.96;68.76;100765.72;5025442;28;20053;-79
2022/04/17 00:48:26;;;;;;;9.38;1.92;;;;;;;8.01;68.52;100766.66;5016108;28;20076;-79
2022/04/17 00:50:56;;;;;;;3.30;1.45;;;;;;;8.01;68.12;100748.38;5034937;28;20039;-79
2022/04/17 00:53:24;;;;;;;5.05;0.95;;;;;;;7.78;68.62;100744.50;5013463;28;20046;-79
2022/04/17 00:55:51;;;;;;;2.55;1.25;;;;;;;7.72;68.42;100760.06;5028950;28;20630;-79
2022/04/17 00:58:20;;;;;;;5.30;1.33;;;;;;;7.66;68.37;100739.06;5038920;28;20131;-79
2022/04/17 01:00:45;;;;;;;5.90;2.35;;;;;;;7.78;68.36;100755.81;5029910;28;20052;-79
2022/04/17 01:03:12;;;;;;;2.38;1.30;;;;;;;7.67;68.51;100756.50;5034924;28;20049;-80
2022/04/17 01:05:42;;;;;;;11.02;2.13;;;;;;;7.77;68.35;100769.75;5034122;28;20029;-80
2022/04/17 01:08:09;;;;;;;4.05;1.52;;;;;;;8.13;67.23;100770.31;5016565;28;20049;-79
2022/04/17 01:10:34;;;;;;;8.77;1.77;;;;;;;7.83;68.02;100782.91;5012893;28;20045;-79
2022/04/17 01:13:03;;;;;;;2.17;1.13;;;;;;;7.67;67.63;100765.19;5021245;28;20472;-79
2022/04/17 01:15:29;;;;;;;16.77;2.40;;;;;;;7.70;67.82;100777.44;5033468;28;20072;-79
2022/04/17 01:19:15;;;;;;;2.78;1.63;;;;;;;7.69;67.48;100767.84;4806789;27;8323265;-77
2022/04/17 01:21:43;;;;;;;25.15;2.95;;;;;;;7.36;67.72;100769.00;5072940;28;20137;-79
2022/04/17 01:26:58;;;;;;;18.73;2.38;;;;;;;7.24;68.38;100776.59;5073879;28;20438;-79
2022/04/17 01:29:40;;;;;;;7.65;1.67;;;;;;;7.19;68.75;100769.56;5055624;28;20492;-78
2022/04/17 01:32:10;;;;;;;7.22;3.17;;;;;;;7.24;69.00;100767.03;5073500;28;20060;-79
2022/04/17 01:34:37;;;;;;;11.68;3.95;;;;;;;7.06;68.88;100757.09;5072590;28;20492;-78
2022/04/17 01:37:03;;;;;;;5.03;2.88;;;;;;;7.16;68.54;100751.25;5074683;28;20036;-78
2022/04/17 01:39:31;;;;;;;6.05;2.30;;;;;;;7.17;68.14;100758.19;5074316;28;20109;-77
2022/04/17 01:41:57;;;;;;;7.82;2.67;;;;;;;7.00;69.04;100764.84;5073329;28;20771;-78
2022/04/17 01:44:25;;;;;;;4.93;3.03;;;;;;;6.94;68.95;100757.75;5073670;28;20087;-78
2022/04/17 01:46:51;;;;;;;5.50;3.22;;;;;;;6.96;69.03;100776.03;5073142;28;20810;-78
2022/04/17 01:49:18;;;;;;;9.63;3.90;;;;;;;7.06;68.95;100782.31;5074140;28;20048;-77
2022/04/17 01:51:46;;;;;;;6.57;3.05;;;;;;;6.83;68.89;100790.53;5073371;28;20129;-78
2022/04/17 01:54:14;;;;;;;9.57;4.07;;;;;;;7.02;68.63;100789.19;5074215;28;20111;-78
2022/04/17 01:56:40;;;;;;;15.50;3.95;;;;;;;6.92;68.64;100789.88;5073555;28;20024;-78
2022/04/17 01:59:07;;;;;;;4.43;2.70;;;;;;;6.93;69.20;100805.56;5054678;28;20060;-77
2022/04/17 02:01:34;;;;;;;6.68;4.18;;;;;;;6.90;69.29;100808.09;5071725;28;20037;-78
2022/04/17 02:04:01;;;;;;;5.47;3.38;;;;;;;7.10;68.24;100797.19;5055375;28;20048;-77
2022/04/17 02:06:27;;;;;;;8.15;3.60;;;;;;;7.14;67.83;100802.50;5072532;28;20051;-77
2022/04/17 02:08:53;;;;;;;10.73;3.90;;;;;;;6.82;68.57;100801.84;5054482;28;20044;-78
2022/04/17 02:11:19;;;;;;;10.07;4.35;;;;;;;6.74;68.62;100787.72;5072436;28;20032;-78
2022/04/17 02:13:45;;;;;;;5.35;2.75;;;;;;;7.05;68.03;100785.81;5072720;28;20044;-79
2022/04/17 02:20:49;;;;;;;5.50;3.70;;;;;;;6.65;70.04;100816.22;4806932;27;8307641;-79
2022/04/17 02:23:15;;;;;;;10.43;5.10;;;;;;;6.64;70.09;100806.66;5035986;28;20065;-79
2022/04/17 02:25:41;;;;;;;6.57;4.32;;;;;;;6.85;71.66;100811.44;5033090;28;20492;-78
2022/04/17 02:28:07;;;;;;;9.73;4.60;;;;;;;6.89;72.22;100808.94;5031641;28;20064;-78
2022/04/17 02:30:33;;;;;;;6.03;4.80;;;;;;;6.51;73.29;100805.50;5038439;28;20045;-78
2022/04/17 02:32:58;;;;;;;9.77;5.00;;;;;;;6.76;74.16;100799.09;5055099;28;20060;-78
2022/04/17 02:35:24;;;;;;;9.05;5.85;;;;;;;6.19;75.74;100791.72;5055962;28;20032;-81
2022/04/17 02:37:49;;;;;;;11.77;4.97;;;;;;;5.92;76.81;100811.88;5054663;28;20056;-79
2022/04/17 02:40:15;;;;;;;13.57;5.00;;;;;;;5.60;79.99;100817.97;5054846;28;20060;-77
2022/04/17 02:42:40;;;;;;;6.68;3.85;;;;;;;5.83;80.22;100811.66;5055114;28;20036;-76
2022/04/17 02:45:07;;;;;;;7.38;5.28;;;;;;;5.79;80.92;100812.41;5056110;28;20025;-78
2022/04/17 02:47:51;;;;;;;12.25;5.57;;;;;;;5.48;81.80;100816.81;5057493;28;20087;-78
2022/04/17 02:50:18;;;;;;;7.22;5.25;;;;;;;5.40;82.33;100820.03;5057484;28;20041;-77
2022/04/17 02:52:45;;;;;;;7.22;5.03;;;;;;;5.65;83.84;100818.97;5052262;28;20111;-77
2022/04/17 02:55:10;;;;;;;14.75;5.07;;;;;;;5.29;83.32;100798.91;5060592;28;20052;-78
2022/04/17 02:57:36;;;;;;;8.88;6.70;;;;;;;5.26;84.79;100799.69;5059548;28;20049;-80
2022/04/17 03:00:05;;;;;;;5.65;4.07;;;;;;;4.96;85.39;100791.03;5059335;28;20033;-78
2022/04/17 03:07:46;;;;;;;9.20;5.18;;;;;;;4.96;86.70;100762.44;4751609;27;8403849;-78
2022/04/17 03:10:08;;;;;;;8.20;5.90;;;;;;;4.90;87.12;100764.88;4907879;28;20042;-76
2022/04/17 03:12:37;;;;;;;17.10;7.57;;;;;;;4.96;88.07;100791.91;5020904;28;20080;-77
2022/04/17 03:15:07;;;;;;;15.18;8.93;;;;;;;4.83;88.13;100798.50;5021463;28;20863;-79
2022/04/17 03:17:33;;;;;;;20.13;8.95;;;;;;;4.79;88.10;100795.75;5019362;28;20744;-76
2022/04/17 03:20:51;;;;;;;13.70;6.47;;;;;;;4.89;88.76;100818.56;4799110;27;8378231;-77
2022/04/17 03:23:17;;;;;;;9.23;4.72;;;;;;;4.69;88.18;100801.53;5037834;27;20056;-76
2022/04/17 03:25:43;;;;;;;17.98;8.90;;;;;;;4.84;88.25;100817.56;5037696;28;20041;-75
2022/04/17 03:28:09;;;;;;;9.65;7.82;;;;;;;4.99;88.67;100817.16;5041637;28;20111;-78
2022/04/17 03:30:37;;;;;;;9.90;7.53;;;;;;;4.98;88.07;100830.97;5047367;28;20393;-77
2022/04/17 03:33:03;;;;;;;7.78;4.93;;;;;;;4.92;88.57;100817.81;5047148;28;20033;-78
2022/04/17 03:35:30;;;;;;;6.95;4.80;;;;;;;4.76;87.62;100819.94;5050229;28;20048;-77
2022/04/17 03:37:57;;;;;;;10.73;7.88;;;;;;;4.74;88.57;100829.41;5039750;28;20072;-78
2022/04/17 03:40:22;;;;;;;8.63;5.25;;;;;;;4.95;88.43;100823.97;5041874;28;20126;-77
2022/04/17 03:42:48;;;;;;;9.77;7.65;;;;;;;5.07;88.35;100833.84;5048668;28;20060;-77
2022/04/17 03:45:16;;;;;;;10.65;4.85;;;;;;;4.84;88.21;100835.75;5047331;28;20061;-77
2022/04/17 03:47:43;;;;;;;7.68;5.05;;;;;;;4.93;88.61;100822.16;5050056;28;20094;-77
2022/04/17 03:50:10;;;;;;;9.23;6.95;;;;;;;4.71;87.93;100837.13;5054139;28;20504;-80
2022/04/17 03:52:43;;;;;;;11.50;7.97;;;;;;;4.78;87.73;100840.81;5048374;28;20516;-78
2022/04/17 03:55:10;;;;;;;8.88;7.82;;;;;;;4.78;87.37;100854.66;5045878;28;20112;-76
2022/04/17 03:57:36;;;;;;;8.35;5.95;;;;;;;4.81;88.34;100823.56;5044033;28;20084;-77
2022/04/17 04:00:04;;;;;;;11.27;7.97;;;;;;;4.70;88.49;100844.88;5035987;28;21141;-77
2022/04/17 04:02:30;;;;;;;6.93;5.05;;;;;;;4.56;87.99;100841.84;5044189;28;20047;-78
2022/04/17 04:04:57;;;;;;;10.88;7.65;;;;;;;4.50;88.44;100844.25;5048256;28;20049;-77
2022/04/17 04:07:23;;;;;;;4.93;3.58;;;;;;;4.41;88.82;100845.72;5049219;28;20064;-78
2022/04/17 04:09:48;;;;;;;9.57;5.97;;;;;;;4.58;88.93;100853.16;5051896;28;20060;-77
2022/04/17 04:12:14;;;;;;;8.30;6.90;;;;;;;4.51;89.07;100872.88;5046287;28;20512;-78
2022/04/17 04:14:40;;;;;;;8.40;5.30;;;;;;;4.38;88.78;100863.81;5038431;28;20037;-77
2022/04/17 04:17:05;;;;;;;14.05;8.35;;;;;;;4.38;89.78;100873.34;5048254;28;20041;-78
2022/04/17 04:20:51;;;;;;;8.25;6.65;;;;;;;4.32;89.06;100866.22;4799695;27;8311430;-77
2022/04/17 04:23:19;;;;;;;6.55;4.63;;;;;;;4.31;89.54;100871.34;5031377;28;20057;-78
2022/04/17 04:25:44;;;;;;;10.65;8.98;;;;;;;4.62;90.20;100863.72;5026927;28;20198;-77
2022/04/17 04:30:54;;;;;;;8.70;4.68;;;;;;;4.33;90.83;100851.50;5029121;28;20068;-77
2022/04/17 04:33:20;;;;;;;8.80;4.80;;;;;;;4.30;90.13;100852.28;5028141;28;20694;-77
2022/04/17 04:35:45;;;;;;;12.13;7.10;;;;;;;4.37;90.03;100855.97;5029548;28;20492;-78
2022/04/17 04:38:11;;;;;;;7.22;4.93;;;;;;;4.35;89.83;100868.91;5029393;28;20038;-77
2022/04/17 04:40:36;;;;;;;13.18;5.20;;;;;;;4.22;89.52;100852.03;5032571;28;20045;-76
2022/04/17 04:43:02;;;;;;;9.43;6.68;;;;;;;4.19;89.75;100879.63;5029077;28;20052;-79
2022/04/17 04:48:13;;;;;;;8.68;5.25;;;;;;;4.29;89.89;100875.63;5027755;28;20152;-77
2022/04/17 04:50:38;;;;;;;8.88;6.30;;;;;;;4.09;90.16;100883.63;5034341;28;20045;-78
2022/04/17 04:53:04;;;;;;;9.15;7.25;;;;;;;4.08;89.31;100896.56;5032911;28;20125;-78
2022/04/17 04:55:29;;;;;;;7.75;5.82;;;;;;;4.25;89.90;100890.22;5029322;28;20053;-78
2022/04/17 04:58:01;;;;;;;9.13;4.50;;;;;;;4.08;89.53;100881.88;5030759;28;20057;-78
2022/04/17 05:00:27;;;;;;;9.75;5.57;;;;;;;4.29;90.17;100899.00;5029740;28;20703;-78
2022/04/17 05:02:52;;;;;;;6.85;4.63;;;;;;;4.26;89.89;100888.50;5034378;28;20033;-77
2022/04/17 05:05:17;;;;;;;6.00;4.25;;;;;;;4.02;89.58;100861.75;5033011;28;20081;-78
2022/04/17 05:07:43;;;;;;;5.90;4.13;;;;;;;3.97;89.80;100884.09;5031077;28;20041;-78
2022/04/17 05:10:10;;;;;;;6.95;4.00;;;;;;;3.95;89.21;100877.97;5027106;28;20455;-78
2022/04/17 05:12:37;;;;;;;5.95;4.20;;;;;;;3.93;89.80;100899.50;5029756;28;21340;-78
2022/04/17 05:15:03;;;;;;;5.60;4.00;;;;;;;3.85;89.29;100873.28;5027094;28;20032;-78
2022/04/17 05:17:29;;;;;;;9.82;6.20;;;;;;;4.00;89.64;100883.31;5030812;28;20033;-78
2022/04/17 05:22:56;;;;;;;8.98;3.97;;;;;;;3.93;89.63;100884.84;4773978;27;8376955;-77
2022/04/17 05:25:22;;;;;;;6.88;6.05;;;;;;;4.17;89.58;100894.28;5043363;28;20489;-79
2022/04/17 05:27:48;;;;;;;7.15;4.82;;;;;;;3.99;89.07;100878.97;5041763;28;20131;-77
2022/04/17 05:30:13;;;;;;;7.10;3.88;;;;;;;4.05;89.65;100905.16;5041402;28;20274;-78
2022/04/17 05:32:38;;;;;;;6.78;4.13;;;;;;;3.82;89.11;100888.78;5041286;28;20037;-77
2022/04/17 05:35:05;;;;;;;8.20;4.50;;;;;;;3.91;88.88;100898.56;5039901;28;20477;-78
2022/04/17 05:37:30;;;;;;;6.32;4.07;;;;;;;4.00;89.84;100905.00;5040215;28;20366;-77
2022/04/17 05:39:56;;;;;;;5.65;3.78;;;;;;;3.69;90.04;100909.91;5040567;28;20111;-78
2022/04/17 05:42:21;;;;;;;8.07;5.40;;;;;;;3.78;89.42;100902.47;5040888;28;20064;-78
2022/04/17 05:44:48;;;;;;;9.48;4.88;;;;;;;3.68;89.63;100896.06;5042379;28;20490;-78
2022/04/17 05:47:14;;;;;;;6.43;3.85;;;;;;;4.07;89.18;100897.38;5040950;28;20235;-79
2022/04/17 05:49:39;;;;;;;6.93;3.63;;;;;;;3.50;89.35;100885.03;5042566;28;20128;-79
2022/04/17 05:52:05;;;;;;;3.03;2.25;;;;;;;3.64;89.61;100888.13;5042320;28;20069;-79
2022/04/17 05:54:31;;;;;;;7.35;4.63;;;;;;;3.90;89.72;100889.91;5040510;28;20077;-79
2022/04/17 05:56:56;;;;;;;5.93;3.28;;;;;;;3.56;89.42;100893.91;5042657;28;20052;-78
2022/04/17 05:59:22;;;;;;;11.32;3.42;;;;;;;3.49;89.97;100910.09;5041883;28;20524;-79
2022/04/17 06:01:47;;;;;;;4.88;3.00;;;;;;;3.65;90.44;100908.91;5038990;28;20105;-78
2022/04/17 06:04:13;;;;;;;11.05;5.55;;;;;;;3.94;90.66;100902.16;5041337;28;20041;-78
2022/04/17 06:06:38;;;;;;;7.25;5.30;;;;;;;3.36;90.18;100881.91;5038718;28;20653;-78
2022/04/17 06:09:04;;;;;;;6.55;3.38;;;;;;;3.50;90.16;100900.59;5041908;28;20485;-78
2022/04/17 06:11:30;;;;;;;5.80;3.22;;;;;;;3.49;90.59;100886.75;5039173;28;20669;-79
2022/04/17 06:13:55;;;;;;;5.55;2.60;;;;;;;3.34;90.73;100919.88;5036108;28;20515;-78
2022/04/17 06:16:21;;;;;;;5.22;3.53;;;;;;;3.24;90.28;100913.47;5035446;28;20070;-79
2022/04/17 06:18:46;;;;;;;5.68;4.80;;;;;;;3.43;91.10;100928.00;5035906;28;20038;-78
2022/04/17 06:23:13;;;;;;;9.85;2.85;;;;;;;3.27;91.41;100923.94;4788647;27;8314830;-79
2022/04/17 06:25:39;;;;;;;2.95;2.28;;;;;;;3.30;91.39;100942.25;5078853;28;20051;-78
2022/04/17 06:28:05;;;;;;;6.55;3.38;;;;;;;3.16;90.72;100928.75;5079063;28;20048;-78
2022/04/17 06:30:30;;;;;;;4.78;3.20;;;;;;;3.20;90.39;100934.03;5080122;28;20044;-80
2022/04/17 06:32:56;;;;;;;4.28;2.58;;;;;;;2.97;91.18;100954.75;5079092;28;20035;-78
2022/04/17 06:35:22;;;;;;;6.13;3.08;;;;;;;3.22;90.99;100954.00;5046333;28;20040;-78
2022/04/17 06:37:52;;;;;;;5.53;2.42;;;;;;;3.07;91.41;100961.22;5079416;28;20032;-78
2022/04/17 06:40:38;;;;;;;4.13;3.03;;;;;;;3.15;91.51;100957.19;5075714;28;20048;-77
2022/04/17 06:43:07;;;;;;;4.55;2.90;;;;;;;3.09;91.48;100944.91;5077975;28;20059;-78
2022/04/17 06:45:34;;;;;;;4.72;2.78;;;;;;;3.24;91.45;100961.88;5076338;28;20432;-77
2022/04/17 06:48:18;;;;;;;6.03;2.72;;;;;;;2.80;91.42;100961.00;5075554;28;20029;-77
2022/04/17 06:50:46;;;;;;;4.78;3.20;;;;;;;2.79;92.31;100970.47;5077404;28;20024;-78
2022/04/17 06:53:12;;;;;;;9.30;3.20;;;;;;;2.92;91.71;100964.94;5076311;28;20052;-77
2022/04/17 06:55:41;;;;;;;4.13;2.72;;;;;;;2.86;92.05;100971.63;5058549;28;20067;-78
2022/04/17 06:58:10;;;;;;;7.97;3.08;;;;;;;3.12;92.18;100978.72;5075930;28;20059;-78
2022/04/17 07:00:37;;;;;;;4.85;2.95;;;;;;;2.74;91.59;100964.25;5074632;28;20036;-78
2022/04/17 07:03:03;;;;;;;5.85;3.05;;;;;;;3.00;91.95;100973.06;5072144;28;20036;-79
2022/04/17 07:05:28;;;;;;;5.55;3.53;;;;;;;3.09;91.73;100967.31;5086562;28;20111;-82
2022/04/17 07:08:05;;;;;;;4.70;2.58;;;;;;;2.61;91.41;100975.78;5086092;28;20186;-80
2022/04/17 07:10:33;;;;;;;6.85;3.38;;;;;;;2.87;91.58;100983.75;5083366;28;20079;-81
2022/04/17 07:12:59;;;;;;;4.28;2.53;;;;;;;2.99;91.58;100975.56;5081770;28;20048;-83
2022/04/17 07:15:24;;;;;;;4.43;2.63;;;;;;;2.63;91.42;100981.03;5086436;28;20067;-81
2022/04/17 07:17:51;;;;;;;4.75;2.60;;;;;;;2.74;91.65;100983.25;5085335;28;20127;-79
2022/04/17 07:22:54;;;;;;;5.93;3.03;;;;;;;2.66;91.33;100970.78;4769357;27;8330758;-79
2022/04/17 07:25:20;;;;;;;5.97;2.55;;;;;;;2.71;92.24;100975.34;5048060;28;20076;-79
2022/04/17 07:27:48;;;;;;;5.82;3.13;;;;;;;2.77;92.36;100990.25;5049160;28;20052;-80
2022/04/17 07:30:16;;;;;;;2.88;1.98;;;;;;;2.55;92.11;100975.53;5048992;28;20120;-79
2022/04/17 07:32:44;;;;;;;13.73;3.53;;;;;;;2.72;92.85;100982.31;5041160;28;20048;-81
2022/04/17 07:35:11;;;;;;;4.82;3.15;;;;;;;2.56;92.55;100992.84;5045323;28;20420;-81
2022/04/17 07:37:37;;;;;;;5.28;3.42;;;;;;;2.71;92.84;100984.81;5048116;28;20046;-81
2022/04/17 07:40:25;;;;;;;8.98;4.57;;;;;;;2.84;93.06;100994.00;5043789;28;20511;-80
2022/04/17 07:42:52;;;;;;;4.72;3.55;;;;;;;2.88;92.73;100954.41;5036399;28;20586;-81
2022/04/17 07:45:19;;;;;;;4.15;2.53;;;;;;;2.88;93.06;101001.03;5023522;28;20037;-82
2022/04/17 07:47:46;;;;;;;6.90;3.58;;;;;;;2.65;93.00;100964.75;5020402;28;20044;-79
2022/04/17 07:50:14;;;;;;;9.13;4.25;;;;;;;2.67;93.08;100977.72;5017298;28;20060;-78
2022/04/17 07:52:44;;;;;;;6.53;3.08;;;;;;;2.78;93.08;100988.56;5019006;28;20056;-77
2022/04/17 07:55:12;;;;;;;6.18;2.80;;;;;;;2.88;93.04;100991.59;5016918;28;20053;-77
2022/04/17 08:00:24;;;;;;;4.28;2.08;;;;;;;2.65;93.00;100989.78;5021135;28;20095;-78
2022/04/17 08:02:53;;;;;;;4.57;2.35;;;;;;;2.74;93.50;100975.47;5037782;28;20041;-78
2022/04/17 08:05:23;;;;;;;5.20;3.10;;;;;;;2.68;92.51;100976.94;5036597;28;20055;-78
2022/04/17 08:07:51;;;;;;;6.55;3.13;;;;;;;2.86;93.26;100977.69;5024286;28;20080;-79
2022/04/17 08:10:16;;;;;;;3.92;2.65;;;;;;;2.63;92.69;100968.97;5016216;28;20136;-79
2022/04/17 08:12:42;;;;;;;7.00;3.58;;;;;;;2.80;92.85;100973.94;5019300;28;20447;-79
2022/04/17 08:15:08;;;;;;;4.55;2.60;;;;;;;2.72;93.19;100978.84;5015101;28;20081;-78
2022/04/17 08:17:34;;;;;;;4.28;2.83;;;;;;;2.89;93.21;100962.25;5018409;28;20086;-77
2022/04/17 08:19:59;;;;;;;5.90;2.30;;;;;;;2.79;92.99;100969.59;5004901;28;20204;-78
2022/04/17 08:22:52;;;;;;;3.80;2.30;;;;;;;2.76;92.77;100959.97;4750192;27;8315723;-80
2022/04/17 08:28:03;;;;;;;3.53;1.65;;;;;;;2.62;92.29;100975.00;4693277;27;11332978;-79
2022/04/17 08:30:31;;;;;;;4.07;2.22;;;;;;;2.54;92.55;100932.31;5047472;28;20087;-78
2022/04/17 08:33:05;;;;;;;6.50;2.70;;;;;;;2.90;92.69;100970.91;5037086;28;20045;-78
2022/04/17 08:35:30;;;;;;;6.70;4.70;;;;;;;2.66;92.17;100956.13;5040353;28;20046;-82
2022/04/17 08:37:59;;;;;;;6.10;2.30;;;;;;;2.79;93.10;100954.94;5041786;28;20405;-78
2022/04/17 08:40:26;;;;;;;6.53;3.28;;;;;;;2.91;93.25;100946.75;5035046;28;20144;-81
2022/04/17 08:42:52;;;;;;;4.95;2.92;;;;;;;2.80;93.55;100943.72;5044979;28;20032;-80
2022/04/17 08:45:18;;;;;;;6.63;2.45;;;;;;;2.86;93.37;100956.94;5044751;28;20037;-80
2022/04/17 08:47:43;;;;;;;2.65;1.70;;;;;;;2.65;93.18;100953.50;5042177;28;20135;-82
2022/04/17 08:50:11;;;;;;;6.28;2.25;;;;;;;2.94;93.45;100955.53;5042596;28;20052;-78
2022/04/17 08:52:38;;;;;;;5.75;3.15;;;;;;;2.99;93.02;100955.72;5043871;28;20083;-78
2022/04/17 08:55:05;;;;;;;4.75;2.58;;;;;;;2.77;92.88;100966.94;5035461;28;20030;-81
2022/04/17 08:57:30;;;;;;;4.40;2.67;;;;;;;2.75;92.52;100964.28;5041963;28;20037;-78
2022/04/17 08:59:56;;;;;;;4.10;2.60;;;;;;;2.80;92.29;100964.47;5044218;28;20448;-76
2022/04/17 09:02:22;;;;;;;5.07;3.28;;;;;;;2.67;92.16;100950.16;5040462;28;21362;-79
2022/04/17 09:04:48;;;;;;;4.90;2.80;;;;;;;2.71;92.37;100959.78;5041474;28;20064;-79
2022/04/17 09:07:14;;;;;;;4.03;2.13;;;;;;;2.69;92.53;100945.91;5034557;28;20045;-77
2022/04/17 09:09:53;;;;;;;4.32;2.25;;;;;;;2.94;92.57;100963.31;5030033;28;20040;-77
2022/04/17 09:12:26;;;;;;;3.65;2.05;;;;;;;3.15;92.83;100949.41;5041836;28;20107;-80
2022/04/17 09:14:55;;;;;;;6.37;2.40;;;;;;;3.11;93.12;100965.66;5041510;28;20060;-77
2022/04/17 09:17:28;;;;;;;5.45;2.08;;;;;;;2.96;92.58;100960.78;5030511;28;20463;-88
2022/04/17 09:19:55;;;;;;;7.25;3.88;;;;;;;2.95;92.96;100961.63;5018977;28;20053;-80
2022/04/17 09:22:21;;;;;;;3.60;1.80;;;;;;;2.93;93.25;100937.34;5023776;28;20072;-82
2022/04/17 09:24:46;;;;;;;4.25;3.15;;;;;;;2.93;92.69;100950.31;5019957;28;20057;-80
2022/04/17 09:27:12;;;;;;;5.80;3.17;;;;;;;2.98;92.29;100951.38;5036487;28;20072;-83
2022/04/17 09:29:39;;;;;;;3.55;1.95;;;;;;;2.99;91.82;100897.81;5039658;28;20596;-86
2022/04/17 09:32:14;;;;;;;4.68;2.22;;;;;;;2.91;92.07;100937.28;5042519;28;20076;-78
2022/04/17 09:34:49;;;;;;;4.68;2.40;;;;;;;3.22;92.15;100951.41;5043398;28;20492;-78
2022/04/17 09:37:18;;;;;;;6.40;4.70;;;;;;;3.22;92.93;100953.13;5039623;28;20080;-78
2022/04/17 09:39:45;;;;;;;5.47;3.15;;;;;;;3.75;92.43;100955.16;5028665;28;20037;-82
2022/04/17 09:42:11;;;;;;;8.52;3.78;;;;;;;3.75;92.53;100960.34;5029795;28;20034;-78
2022/04/17 09:44:47;;;;;;;5.03;2.72;;;;;;;3.18;92.51;100944.34;5025716;28;20061;-79
2022/04/17 09:47:22;;;;;;;4.25;2.90;;;;;;;3.21;92.10;100954.84;5030875;28;20144;-79
2022/04/17 09:50:04;;;;;;;5.78;3.10;;;;;;;3.26;92.31;100952.44;5030496;28;20049;-88
2022/04/17 09:52:49;;;;;;;7.57;3.30;;;;;;;3.29;92.46;100961.19;5035011;28;20037;-77
2022/04/17 09:55:26;;;;;;;5.55;3.17;;;;;;;3.35;92.45;100968.34;5031700;28;20045;-79
2022/04/17 09:58:03;;;;;;;5.47;4.10;;;;;;;3.25;92.47;100948.94;5026917;28;20057;-78
2022/04/17 10:00:40;;;;;;;9.07;4.93;;;;;;;3.23;92.36;100953.22;5051901;28;20040;-80
2022/04/17 10:03:11;;;;;;;7.53;3.65;;;;;;;3.30;92.88;100959.47;5044490;28;20121;-89
2022/04/17 10:05:38;;;;;;;10.75;5.30;;;;;;;3.84;93.30;100969.25;5037106;28;20049;-78
2022/04/17 10:08:10;;;;;;;8.40;5.75;;;;;;;3.60;93.39;100970.13;5026411;28;20045;-76
2022/04/17 10:10:49;;;;;;;;;;;;;;;3.50;92.59;100958.53;5032659;28;20053;-84
2022/04/17 10:13:19;;;;;;;5.40;2.85;;;;;;;3.31;92.07;100958.69;5028667;28;19917;-83
2022/04/17 10:15:47;;;;;;;5.93;4.18;;;;;;;3.48;92.07;100962.78;5028190;28;20040;-82
2022/04/17 10:18:34;;;;;;;8.98;5.53;;;;;;;3.35;92.30;100966.63;5030545;28;20036;-83
2022/04/17 10:21:07;;;;;;;9.98;4.95;;;;;;;3.21;92.84;100940.97;5033537;28;20052;-82
2022/04/17 10:23:38;;;;;;;8.88;3.35;;;;;;;3.46;92.85;100958.38;5038829;28;20412;-82
2022/04/17 10:26:06;;;;;;;6.72;3.72;;;;;;;3.56;93.62;100971.75;5029588;28;20068;-81
2022/04/17 10:28:46;;;;;;;12.38;4.90;;;;;;;3.42;92.61;100962.56;5012173;28;20053;-82
2022/04/17 10:31:20;;;;;;;8.63;3.97;;;;;;;3.46;92.42;100976.53;5038796;28;20045;-83
2022/04/17 10:33:57;;;;;;;;;;;;;;;3.56;92.67;100966.56;5039706;28;20052;-85
2022/04/17 10:36:51;;;;;;;6.82;5.05;;;;;;;3.34;92.25;100980.41;5034557;28;19920;-84
2022/04/17 10:39:40;;;;;;;6.55;5.43;;;;;;;3.33;92.24;100968.28;5036258;28;20053;-81
2022/04/17 10:42:08;;;;;;;6.35;3.50;;;;;;;3.54;92.19;100969.94;5037775;28;20098;-82
2022/04/17 10:44:38;;;;;;;5.68;3.22;;;;;;;3.31;91.92;100953.50;5017969;28;20049;-81
2022/04/17 10:47:05;;;;;;;6.13;3.38;;;;;;;3.46;92.34;100953.19;5034619;28;20061;-82
2022/04/17 10:49:50;;;;;;;5.65;2.92;;;;;;;3.46;92.45;100961.84;5035497;28;20128;-82
2022/04/17 10:52:31;;;;;;;8.63;5.38;;;;;;;3.56;92.67;100958.78;5019403;28;20052;-83
2022/04/17 10:55:08;;;;;;;6.03;4.82;;;;;;;3.53;92.44;100962.94;5035992;28;20438;-82
2022/04/17 10:57:48;;;;;;;7.45;3.50;;;;;;;3.33;91.50;100950.13;5036930;28;20086;-82
2022/04/17 11:00:36;;;;;;;7.97;4.03;;;;;;;3.49;91.56;100953.28;5037965;28;20052;-83
2022/04/17 11:03:12;;;;;;;9.07;6.07;;;;;;;3.47;91.48;100953.25;5036904;28;20045;-83
2022/04/17 11:08:25;;;;;;;8.18;3.90;;;;;;;3.55;91.03;100924.97;5036882;28;20579;-81
2022/04/17 11:10:54;;;;;;;6.55;4.97;;;;;;;3.23;90.79;100922.09;5019744;28;20365;-83
2022/04/17 11:13:24;;;;;;;5.35;3.10;;;;;;;3.54;90.84;100946.59;5037658;28;20052;-83
2022/04/17 11:15:55;;;;;;;5.75;4.05;;;;;;;3.45;90.82;100931.53;5047696;28;20040;-83
2022/04/17 11:18:34;;;;;;;5.18;3.20;;;;;;;3.39;90.83;100920.94;5040394;28;20115;-81
2022/04/17 11:21:09;;;;;;;6.95;5.38;;;;;;;3.57;91.43;100936.31;5037096;28;20041;-83
2022/04/17 11:23:49;;;;;;;6.85;4.85;;;;;;;3.43;91.13;100927.13;5039784;28;20052;-83
2022/04/17 11:26:18;;;;;;;4.88;2.67;;;;;;;3.43;91.42;100920.22;5038916;28;20060;-83
2022/04/17 11:29:01;;;;;;;6.82;5.03;;;;;;;3.49;91.12;100910.09;5021352;28;20037;-81
2022/04/17 11:31:33;;;;;;;5.78;4.10;;;;;;;3.75;91.81;100907.56;5040281;28;20036;-84
2022/04/17 11:34:01;;;;;;;6.38;3.90;;;;;;;3.68;92.06;100921.13;5038632;28;20043;-81
2022/04/17 11:36:27;;;;;;;7.43;4.10;;;;;;;3.71;92.23;100905.66;5039944;28;20036;-82
2022/04/17 11:38:52;;;;;;;5.90;3.90;;;;;;;3.76;91.13;100906.72;5041307;28;20057;-82
2022/04/17 11:41:24;;;;;;;6.90;5.03;;;;;;;3.71;91.21;100908.25;5039480;28;20072;-83
2022/04/17 11:43:59;;;;;;;5.88;4.65;;;;;;;3.75;90.53;100904.94;5031213;28;20045;-82
2022/04/17 11:46:28;;;;;;;5.40;3.58;;;;;;;3.76;90.56;100884.22;5026241;28;20044;-82
2022/04/17 11:48:54;;;;;;;10.68;5.00;;;;;;;3.90;91.31;100904.59;5022036;28;20071;-83
2022/04/17 11:51:20;;;;;;;9.32;6.55;;;;;;;3.88;91.60;100875.09;5042443;28;20033;-81
2022/04/17 11:53:48;;;;;;;7.45;4.85;;;;;;;4.13;91.74;100882.91;5039634;28;20053;-82
2022/04/17 11:56:14;;;;;;;8.52;4.07;;;;;;;3.77;91.77;100869.56;5041463;28;20052;-82
2022/04/17 11:58:40;;;;;;;9.02;5.88;;;;;;;4.23;92.32;100882.38;5021514;28;20049;-80
2022/04/17 12:01:07;;;;;;;6.40;4.65;;;;;;;4.10;91.87;100876.75;5040234;28;20033;-83
2022/04/17 12:03:34;;;;;;;6.45;4.63;;;;;;;4.02;91.88;100884.25;5040921;28;20564;-82
2022/04/17 12:06:02;;;;;;;9.32;7.25;;;;;;;4.03;92.05;100878.25;5039728;28;20081;-82
2022/04/17 12:08:33;;;;;;;9.52;7.15;;;;;;;4.04;92.51;100863.53;5039606;28;20127;-83
2022/04/17 12:11:01;;;;;;;12.85;8.07;;;;;;;4.33;92.48;100880.06;5042114;28;20040;-83
2022/04/17 12:13:28;;;;;;;8.32;7.07;;;;;;;4.44;91.82;100873.50;5040153;28;20132;-82
2022/04/17 12:16:05;;;;;;;9.85;5.80;;;;;;;4.25;92.09;100866.84;5023435;28;20374;-84